Terminal Aerodrome Forecast
Issued by NWS

Home | Current Version | Previous Version | Text Only | Print | Product List | Glossary On
Versions: 1 2 3 4 5 6 7 8 9 10 11 12 13 14 15 16 17 18 19 20 21 22 23 24 25 26 27 28 29 30 31 32 33 34 35 36 37 38 39 40
000
FTUS45 KSLC 220257 AAC
TAFOGD
TAF AMD
KOGD 220257Z 2203/2224 VRB05KT 4SM -RA SCT010 BKN020
     FM220500 34007KT P6SM -RA SCT010 BKN035
     FM220900 VRB05KT P6SM VCSH SCT030 BKN060=

USA.gov is the U.S. government's official web portal to all federal, state and local government web resources and services.